West York, Illinois
Current Conditions -  °F | °C
As of 7:35 PM on Saturday 20 Dec 2014 (Local Time) from KRSV Reporting Station
Clear Clear  
Wind Chill: 26°   Ceiling: Unl
Heat Index: 26°   Visibility: 7mi
Dew Point: 25°   Wind: 0mph
Humidity: 96%   Direction: NA
Pressure: 30.32"   Gusts: NA
Location:  39.17°N, 87.67°W
Report Text: KRSV 210135Z AUTO 00000KT 7SM CLR M03/M04 A3032 RMK AO2 T10321038
Loading
Personal Weather Stations






























Interactive Weather Map New forecast layout! Learn more

10-Day Weather Forecast

Advertisements
Track Severe Weather on mobile